Time;durP1;ratioP1;P1;durP2;ratioP2;P2;SDS_P1;SDS_P2;PMS_P1;PMS_P2;Temp;Humidity;BMP_temperature;BMP_pressure;BME280_temperature;BME280_humidity;BME280_pressure;Samples;Min_cycle;Max_cycle;Signal;HPM_P1;HPM_P2
2021/08/21 00:02:03;;;;;;;8.48;6.20;;;15.40;99.90;;;;;;5047683;28;20122;-67
2021/08/21 00:04:30;;;;;;;10.30;6.32;;;15.30;99.90;;;;;;5045833;28;20053;-69
2021/08/21 00:06:58;;;;;;;10.77;5.55;;;15.30;99.90;;;;;;5029810;28;20045;-69
2021/08/21 00:09:26;;;;;;;9.90;5.88;;;15.30;99.90;;;;;;5013920;28;20427;-69
2021/08/21 00:11:53;;;;;;;10.77;5.78;;;15.20;99.90;;;;;;5031920;28;20492;-69
2021/08/21 00:14:20;;;;;;;8.02;5.60;;;15.20;99.90;;;;;;5020737;28;20041;-69
2021/08/21 00:16:48;;;;;;;9.43;5.80;;;15.20;99.90;;;;;;5034412;28;20052;-69
2021/08/21 00:19:15;;;;;;;10.50;5.50;;;15.20;99.90;;;;;;5025833;28;20030;-69
2021/08/21 00:21:43;;;;;;;10.88;7.47;;;15.20;99.90;;;;;;5025818;28;20041;-67
2021/08/21 00:24:10;;;;;;;25.95;18.25;;;15.20;99.90;;;;;;5031525;28;20545;-69
2021/08/21 00:26:37;;;;;;;20.38;14.32;;;15.20;99.90;;;;;;5031723;28;20049;-69
2021/08/21 00:29:12;;;;;;;15.15;10.48;;;15.10;99.90;;;;;;5026406;28;20483;-69
2021/08/21 00:31:39;;;;;;;10.77;6.90;;;15.20;99.90;;;;;;5023239;28;20494;-69
2021/08/21 00:34:07;;;;;;;9.73;6.15;;;15.10;99.90;;;;;;5022056;28;20064;-69
2021/08/21 00:36:34;;;;;;;12.60;6.18;;;15.10;99.90;;;;;;5031263;28;20042;-69
2021/08/21 00:39:13;;;;;;;9.02;6.32;;;15.10;99.90;;;;;;5036916;28;20044;-69
2021/08/21 00:41:41;;;;;;;11.43;6.00;;;15.10;99.90;;;;;;5041581;28;20061;-69
2021/08/21 00:44:09;;;;;;;11.63;6.47;;;15.00;99.90;;;;;;5036148;28;20045;-69
2021/08/21 00:47:06;;;;;;;8.23;5.82;;;15.00;99.90;;;;;;5033858;28;20038;-69
2021/08/21 00:49:34;;;;;;;9.65;5.80;;;14.90;99.90;;;;;;5014631;28;20666;-69
2021/08/21 00:52:04;;;;;;;11.45;5.88;;;14.90;99.90;;;;;;5020438;28;20073;-69
2021/08/21 00:54:32;;;;;;;9.43;6.53;;;14.90;99.90;;;;;;5042801;28;20041;-69
2021/08/21 00:57:03;;;;;;;15.30;5.75;;;14.80;99.90;;;;;;5038239;28;20116;-69
2021/08/21 00:59:33;;;;;;;10.18;6.18;;;14.70;99.90;;;;;;5031831;28;20454;-69
2021/08/21 01:02:02;;;;;;;10.80;6.30;;;14.70;99.90;;;;;;5049673;28;20519;-69
2021/08/21 01:04:30;;;;;;;11.60;6.15;;;14.70;99.90;;;;;;5050159;28;20048;-69
2021/08/21 01:07:23;;;;;;;9.55;5.78;;;14.70;99.90;;;;;;5030159;28;20033;-69
2021/08/21 01:09:51;;;;;;;8.68;5.72;;;14.60;99.90;;;;;;5030723;28;20053;-69
2021/08/21 01:12:21;;;;;;;9.80;5.57;;;14.60;99.90;;;;;;5032435;28;20407;-69
2021/08/21 01:14:50;;;;;;;8.63;5.97;;;14.50;99.90;;;;;;5031728;28;20045;-69
2021/08/21 01:17:20;;;;;;;13.98;7.50;;;14.50;99.90;;;;;;5017412;28;20038;-69
2021/08/21 01:19:50;;;;;;;9.75;6.03;;;14.50;99.90;;;;;;5031666;28;20432;-69
2021/08/21 01:22:25;;;;;;;7.85;5.43;;;14.40;99.90;;;;;;5030448;28;20049;-69
2021/08/21 01:24:59;;;;;;;7.32;5.32;;;14.40;99.90;;;;;;5030790;28;20077;-69
2021/08/21 01:27:31;;;;;;;10.23;6.18;;;14.40;99.90;;;;;;5034117;28;20061;-68
2021/08/21 01:30:19;;;;;;;10.43;6.30;;;14.40;99.90;;;;;;5005321;28;20057;-69
2021/08/21 01:33:00;;;;;;;9.23;5.95;;;14.30;99.90;;;;;;5021716;28;20042;-69
2021/08/21 01:35:29;;;;;;;9.90;6.10;;;14.30;99.90;;;;;;5010474;28;20041;-68
2021/08/21 01:37:56;;;;;;;10.07;5.65;;;14.30;99.90;;;;;;5024280;28;20408;-68
2021/08/21 01:40:33;;;;;;;11.45;5.50;;;14.30;99.90;;;;;;5038948;28;20036;-68
2021/08/21 01:43:05;;;;;;;14.57;6.40;;;14.30;99.90;;;;;;5037170;28;20041;-68
2021/08/21 01:45:42;;;;;;;8.18;6.05;;;14.20;99.90;;;;;;5023711;28;20056;-68
2021/08/21 01:48:11;;;;;;;9.88;6.43;;;14.20;99.90;;;;;;5042716;28;20132;-68
2021/08/21 01:50:41;;;;;;;10.65;6.18;;;14.20;99.90;;;;;;5033322;28;20053;-68
2021/08/21 01:53:11;;;;;;;11.50;6.40;;;14.20;99.90;;;;;;5029026;28;20392;-68
2021/08/21 01:55:39;;;;;;;9.18;6.38;;;14.20;99.90;;;;;;5027329;28;20136;-68
2021/08/21 01:58:19;;;;;;;11.75;6.57;;;14.20;99.90;;;;;;5042750;28;20035;-68
2021/08/21 02:00:50;;;;;;;12.32;5.95;;;14.20;99.90;;;;;;5018567;28;20046;-68
2021/08/21 02:03:21;;;;;;;9.80;6.15;;;14.20;99.90;;;;;;5029504;28;20106;-68
2021/08/21 02:05:48;;;;;;;12.93;6.45;;;14.20;99.90;;;;;;5030301;28;20044;-68
2021/08/21 02:08:18;;;;;;;9.27;5.63;;;14.10;99.90;;;;;;5015319;28;20427;-68
2021/08/21 02:10:46;;;;;;;10.10;5.72;;;14.20;99.90;;;;;;5012693;28;20567;-68
2021/08/21 02:13:14;;;;;;;10.10;5.13;;;14.10;99.90;;;;;;5035075;28;20042;-68
2021/08/21 02:15:41;;;;;;;9.57;6.20;;;14.10;99.90;;;;;;5045247;28;20068;-68
2021/08/21 02:18:10;;;;;;;10.98;5.60;;;14.10;99.90;;;;;;5043174;28;20045;-68
2021/08/21 02:20:38;;;;;;;9.57;6.47;;;14.10;99.90;;;;;;5026913;28;20047;-68
2021/08/21 02:23:10;;;;;;;11.90;6.40;;;14.10;99.90;;;;;;5031640;28;20162;-68
2021/08/21 02:25:39;;;;;;;9.85;6.28;;;14.10;99.90;;;;;;5042798;28;20091;-68
2021/08/21 02:28:14;;;;;;;9.10;6.30;;;14.10;99.90;;;;;;5041694;28;20041;-68
2021/08/21 02:30:42;;;;;;;9.25;5.50;;;14.10;99.90;;;;;;5015767;28;20039;-68
2021/08/21 02:33:10;;;;;;;8.20;5.60;;;14.20;99.90;;;;;;5025050;28;20049;-68
2021/08/21 02:35:39;;;;;;;9.10;5.97;;;14.20;99.90;;;;;;5035656;28;20497;-68
2021/08/21 02:38:08;;;;;;;7.88;5.50;;;14.20;99.90;;;;;;5013705;28;20041;-68
2021/08/21 02:40:37;;;;;;;7.07;5.05;;;14.20;99.90;;;;;;5040189;28;20393;-68
2021/08/21 02:43:05;;;;;;;8.55;5.90;;;14.30;99.90;;;;;;5030076;28;20069;-68
2021/08/21 02:45:33;;;;;;;11.45;5.53;;;14.30;99.90;;;;;;5035208;28;20151;-68
2021/08/21 02:48:00;;;;;;;9.80;6.15;;;14.30;99.90;;;;;;5043956;28;20106;-68
2021/08/21 02:50:31;;;;;;;8.18;5.65;;;14.30;99.90;;;;;;5010215;28;20144;-68
2021/08/21 02:52:58;;;;;;;8.52;5.38;;;14.20;99.90;;;;;;5033908;28;20128;-68
2021/08/21 02:55:26;;;;;;;9.68;5.40;;;14.20;99.90;;;;;;5039406;28;20044;-68
2021/08/21 02:57:53;;;;;;;9.05;5.40;;;14.20;99.90;;;;;;5043812;28;20033;-68
2021/08/21 03:00:30;;;;;;;8.23;6.22;;;14.20;99.90;;;;;;5027689;28;20048;-68
2021/08/21 03:03:01;;;;;;;6.78;5.05;;;14.20;99.90;;;;;;5043967;28;20376;-68
2021/08/21 03:05:30;;;;;;;7.75;5.45;;;14.30;99.90;;;;;;5013595;28;20041;-68
2021/08/21 03:08:00;;;;;;;9.65;5.05;;;14.30;99.90;;;;;;5024060;28;20491;-68
2021/08/21 03:10:27;;;;;;;7.93;5.03;;;14.30;99.90;;;;;;5039661;28;20037;-68
2021/08/21 03:12:59;;;;;;;8.48;4.95;;;14.30;99.90;;;;;;5015285;28;20054;-68
2021/08/21 03:15:28;;;;;;;7.82;4.97;;;14.40;99.90;;;;;;5026784;28;20499;-68
2021/08/21 03:17:57;;;;;;;7.55;5.20;;;14.40;99.90;;;;;;5028618;28;20037;-68
2021/08/21 03:20:27;;;;;;;8.10;5.28;;;14.40;99.90;;;;;;5034524;28;20797;-68
2021/08/21 03:22:55;;;;;;;8.55;5.60;;;14.50;99.90;;;;;;4999077;28;20046;-68
2021/08/21 03:25:26;;;;;;;7.03;4.85;;;14.50;99.90;;;;;;5021128;28;20146;-68
2021/08/21 03:27:54;;;;;;;8.98;5.00;;;14.50;99.90;;;;;;5030047;28;20801;-68
2021/08/21 03:30:22;;;;;;;7.88;4.70;;;14.50;99.90;;;;;;5032573;28;20049;-68
2021/08/21 03:33:08;;;;;;;7.90;5.63;;;14.50;99.90;;;;;;5020579;28;20056;-68
2021/08/21 03:35:36;;;;;;;8.65;5.32;;;14.50;99.90;;;;;;5026182;28;20030;-68
2021/08/21 03:38:05;;;;;;;8.25;5.30;;;14.50;99.90;;;;;;5027806;28;20048;-68
2021/08/21 03:40:44;;;;;;;6.53;4.43;;;14.40;99.90;;;;;;5037529;28;20041;-68
2021/08/21 03:43:15;;;;;;;7.85;5.15;;;14.40;99.90;;;;;;5034710;28;20050;-68
2021/08/21 03:45:44;;;;;;;9.65;5.07;;;14.40;99.90;;;;;;5021375;28;20057;-68
2021/08/21 03:48:12;;;;;;;7.07;5.00;;;14.40;99.90;;;;;;5038117;28;20072;-68
2021/08/21 03:50:40;;;;;;;7.22;4.80;;;14.40;99.90;;;;;;5025777;28;20072;-68
2021/08/21 03:53:07;;;;;;;7.78;4.65;;;14.30;99.90;;;;;;5039171;28;20431;-68
2021/08/21 03:55:43;;;;;;;6.88;4.30;;;14.30;99.90;;;;;;5026810;28;20061;-68
2021/08/21 03:58:10;;;;;;;7.20;5.03;;;14.30;99.90;;;;;;5022206;28;20491;-68
2021/08/21 04:00:38;;;;;;;8.45;4.60;;;14.20;99.90;;;;;;5025359;28;20677;-68
2021/08/21 04:03:11;;;;;;;6.60;4.65;;;14.20;99.90;;;;;;5029997;28;20088;-68
2021/08/21 04:05:40;;;;;;;9.60;4.97;;;14.10;99.90;;;;;;5029062;28;20037;-68
2021/08/21 04:08:09;;;;;;;7.40;4.82;;;14.10;99.90;;;;;;5016368;28;20056;-69
2021/08/21 04:10:38;;;;;;;8.70;5.13;;;14.10;99.90;;;;;;5039109;28;20045;-68
2021/08/21 04:13:07;;;;;;;7.13;4.75;;;14.20;99.90;;;;;;5017218;28;20409;-68
2021/08/21 04:15:35;;;;;;;8.52;4.65;;;14.10;99.90;;;;;;5044777;28;20578;-68
2021/08/21 04:18:03;;;;;;;7.47;4.47;;;14.10;99.90;;;;;;5036555;28;20069;-69
2021/08/21 04:20:31;;;;;;;9.35;5.15;;;14.10;99.90;;;;;;5024263;28;20034;-68
2021/08/21 04:22:59;;;;;;;7.40;4.68;;;14.10;99.90;;;;;;5021747;28;20083;-68
2021/08/21 04:25:28;;;;;;;7.38;4.63;;;14.20;99.90;;;;;;5034952;28;20056;-68
2021/08/21 04:28:01;;;;;;;6.00;4.30;;;14.20;99.90;;;;;;5033343;28;20049;-68
2021/08/21 04:30:29;;;;;;;9.27;4.85;;;14.30;99.90;;;;;;5034432;28;20052;-68
2021/08/21 04:32:56;;;;;;;6.78;4.35;;;14.40;99.90;;;;;;5031944;28;20125;-68
2021/08/21 04:35:25;;;;;;;6.60;3.92;;;14.50;99.90;;;;;;5020206;28;20076;-68
2021/08/21 04:37:54;;;;;;;6.47;4.63;;;14.50;99.90;;;;;;5040742;28;20049;-68
2021/08/21 04:40:24;;;;;;;7.35;4.53;;;14.60;99.90;;;;;;5039059;28;20499;-68
2021/08/21 04:42:58;;;;;;;8.40;5.25;;;14.70;99.90;;;;;;5034339;28;20040;-68
2021/08/21 04:45:25;;;;;;;8.65;5.53;;;14.80;99.90;;;;;;5032469;28;20504;-68
2021/08/21 04:47:53;;;;;;;7.57;4.90;;;14.80;99.90;;;;;;5023119;28;20045;-68
2021/08/21 04:50:23;;;;;;;9.02;6.10;;;14.80;99.90;;;;;;5029314;28;20045;-68
2021/08/21 04:52:50;;;;;;;12.80;8.02;;;14.90;99.90;;;;;;5018683;28;20053;-68
2021/08/21 04:55:18;;;;;;;7.85;5.03;;;15.00;99.90;;;;;;5043476;28;20033;-68
2021/08/21 04:57:49;;;;;;;10.98;5.60;;;15.00;99.90;;;;;;5042835;28;20088;-68
2021/08/21 05:00:17;;;;;;;9.23;4.70;;;14.90;99.90;;;;;;5013854;28;20411;-68
2021/08/21 05:03:19;;;;;;;9.13;4.82;;;15.00;99.90;;;;;;5027484;28;20052;-68
2021/08/21 05:05:48;;;;;;;7.57;4.28;;;15.10;99.90;;;;;;5025355;28;20077;-68
2021/08/21 05:08:16;;;;;;;7.20;4.50;;;15.20;99.90;;;;;;5040139;28;20435;-68
2021/08/21 05:10:50;;;;;;;7.03;5.18;;;15.30;99.90;;;;;;5041541;28;20871;-68
2021/08/21 05:13:17;;;;;;;12.32;6.22;;;15.40;99.90;;;;;;5041489;28;20046;-68
2021/08/21 05:15:46;;;;;;;11.48;6.05;;;15.40;99.90;;;;;;5040737;28;20038;-68
2021/08/21 05:19:28;;;;;;;10.10;4.72;;;15.50;99.90;;;;;;5018964;28;20512;-68
2021/08/21 05:21:36;;;;;;;6.03;3.97;;;15.60;99.90;;;;;;5043432;28;20099;-68
2021/08/21 05:24:04;;;;;;;7.20;4.53;;;15.70;99.90;;;;;;5009618;28;20041;-69
2021/08/21 05:26:31;;;;;;;6.43;4.70;;;15.80;99.90;;;;;;5046173;28;20045;-68
2021/08/21 05:29:00;;;;;;;7.75;4.45;;;15.80;99.90;;;;;;5046963;28;20037;-68
2021/08/21 05:31:28;;;;;;;9.40;6.25;;;15.90;99.90;;;;;;5035813;28;20136;-69
2021/08/21 05:33:56;;;;;;;8.38;5.10;;;15.90;99.90;;;;;;5040712;28;20064;-68
2021/08/21 05:36:24;;;;;;;8.93;4.50;;;16.00;99.90;;;;;;5037169;28;20041;-68
2021/08/21 05:38:51;;;;;;;7.15;4.22;;;16.10;99.90;;;;;;5037746;28;20103;-68
2021/08/21 05:41:18;;;;;;;7.80;4.97;;;16.20;99.90;;;;;;5045745;28;20041;-68
2021/08/21 05:43:45;;;;;;;7.28;4.30;;;16.20;99.90;;;;;;5039270;28;20056;-68
2021/08/21 05:46:13;;;;;;;8.20;4.30;;;16.30;99.90;;;;;;5015951;28;20049;-69
2021/08/21 05:48:40;;;;;;;7.03;3.88;;;16.40;99.90;;;;;;5024061;28;20065;-68
2021/08/21 05:51:07;;;;;;;7.05;4.32;;;16.50;99.90;;;;;;5024049;28;20064;-68
2021/08/21 05:53:34;;;;;;;6.05;4.10;;;16.50;99.90;;;;;;5041495;28;20478;-68
2021/08/21 05:56:02;;;;;;;7.97;4.32;;;16.50;99.90;;;;;;5038850;28;20045;-68
2021/08/21 05:58:29;;;;;;;6.97;4.72;;;16.60;99.90;;;;;;5045893;28;20115;-68
2021/08/21 06:00:56;;;;;;;7.18;4.57;;;16.70;99.90;;;;;;5032367;28;20046;-68
2021/08/21 06:03:24;;;;;;;7.45;4.65;;;16.80;99.90;;;;;;5027299;28;20047;-68
2021/08/21 06:05:51;;;;;;;8.00;4.97;;;16.90;99.90;;;;;;5042234;28;20492;-68
2021/08/21 06:08:18;;;;;;;8.45;5.35;;;17.10;99.90;;;;;;5042301;28;20519;-68
2021/08/21 06:10:54;;;;;;;8.48;5.40;;;17.20;99.90;;;;;;5041181;28;20055;-68
2021/08/21 06:13:23;;;;;;;7.25;4.85;;;17.40;99.90;;;;;;5021989;28;20044;-68
2021/08/21 06:15:50;;;;;;;7.32;4.97;;;17.50;99.90;;;;;;5038817;28;20039;-68
2021/08/21 06:18:18;;;;;;;9.48;5.10;;;17.60;99.90;;;;;;5034673;28;20076;-69
2021/08/21 06:20:45;;;;;;;7.80;4.85;;;17.60;99.90;;;;;;5034230;28;20047;-69
2021/08/21 06:23:13;;;;;;;8.13;4.95;;;17.70;99.90;;;;;;5020914;28;20030;-69
2021/08/21 06:25:40;;;;;;;7.53;5.05;;;17.80;99.90;;;;;;5044327;28;20132;-68
2021/08/21 06:28:07;;;;;;;7.00;4.60;;;17.80;99.90;;;;;;5039879;28;20445;-68
2021/08/21 06:30:35;;;;;;;7.63;4.70;;;17.90;99.90;;;;;;5033406;28;20089;-69
2021/08/21 06:33:02;;;;;;;6.55;4.25;;;17.90;99.90;;;;;;5022480;28;20045;-69
2021/08/21 06:35:29;;;;;;;7.97;4.57;;;18.00;99.90;;;;;;5034210;28;20040;-69
2021/08/21 06:37:57;;;;;;;7.28;4.90;;;18.00;99.90;;;;;;5014389;28;20128;-69
2021/08/21 06:40:24;;;;;;;9.00;5.55;;;17.90;99.90;;;;;;5032010;28;20411;-69
2021/08/21 06:42:52;;;;;;;6.88;4.65;;;17.90;99.90;;;;;;5036806;28;20042;-69
2021/08/21 06:45:27;;;;;;;6.15;4.30;;;17.90;99.90;;;;;;5025236;28;20099;-69
2021/08/21 06:47:56;;;;;;;7.00;3.90;;;18.00;99.90;;;;;;5029470;28;20055;-69
2021/08/21 06:50:23;;;;;;;6.93;4.28;;;18.10;99.90;;;;;;5019178;28;20137;-69
2021/08/21 06:52:51;;;;;;;7.95;4.85;;;18.20;99.90;;;;;;5031396;28;20107;-69
2021/08/21 06:55:19;;;;;;;9.02;4.95;;;18.50;99.90;;;;;;5040677;28;20052;-69
2021/08/21 06:58:03;;;;;;;7.43;4.45;;;18.60;99.90;;;;;;5036263;28;20049;-69
2021/08/21 07:00:30;;;;;;;6.18;4.25;;;18.70;99.90;;;;;;5036552;28;20511;-69
2021/08/21 07:02:58;;;;;;;9.85;4.38;;;18.80;99.90;;;;;;5037483;28;20439;-69
2021/08/21 07:05:25;;;;;;;5.50;3.85;;;18.90;99.90;;;;;;5042854;28;20139;-70
2021/08/21 07:07:53;;;;;;;7.45;4.28;;;19.10;99.90;;;;;;5030202;28;20042;-70
2021/08/21 07:10:21;;;;;;;7.22;5.03;;;19.30;99.90;;;;;;5041963;28;20108;-70
2021/08/21 07:12:48;;;;;;;6.22;4.40;;;19.50;99.90;;;;;;5022228;28;20125;-70
2021/08/21 07:15:15;;;;;;;22.00;16.33;;;19.70;99.90;;;;;;5034034;28;20384;-70
2021/08/21 07:17:43;;;;;;;10.32;8.10;;;19.90;99.90;;;;;;5038742;28;20041;-69
2021/08/21 07:20:11;;;;;;;10.48;7.28;;;19.90;99.90;;;;;;5036187;28;20103;-69
2021/08/21 07:22:38;;;;;;;7.88;5.20;;;20.10;99.90;;;;;;5028445;28;20038;-69
2021/08/21 07:25:05;;;;;;;6.90;4.80;;;20.30;99.90;;;;;;5036438;28;20059;-70
2021/08/21 07:27:33;;;;;;;6.85;4.90;;;20.40;99.90;;;;;;5035836;28;20103;-70
2021/08/21 07:30:05;;;;;;;12.68;9.35;;;20.70;99.90;;;;;;5030157;28;20072;-70
2021/08/21 07:32:34;;;;;;;11.75;7.80;;;20.90;99.90;;;;;;5029445;28;20064;-70
2021/08/21 07:35:03;;;;;;;8.63;5.95;;;21.10;99.90;;;;;;5017432;28;20048;-70
2021/08/21 07:37:31;;;;;;;10.65;7.88;;;21.10;99.90;;;;;;4999999;28;20179;-70
2021/08/21 07:39:58;;;;;;;15.00;11.18;;;21.20;99.90;;;;;;5012736;28;20897;-70
2021/08/21 07:42:26;;;;;;;8.27;5.45;;;21.20;99.90;;;;;;5015331;28;20056;-70
2021/08/21 07:44:53;;;;;;;9.65;5.88;;;21.30;99.90;;;;;;5016352;28;20487;-70
2021/08/21 07:47:20;;;;;;;7.93;5.25;;;21.20;99.90;;;;;;5024893;28;20773;-69
2021/08/21 07:49:47;;;;;;;7.55;4.72;;;21.10;99.90;;;;;;5023166;28;20535;-70
2021/08/21 07:52:17;;;;;;;7.82;4.63;;;21.20;99.90;;;;;;5031794;28;20059;-70
2021/08/21 07:54:44;;;;;;;7.43;4.93;;;21.40;99.90;;;;;;5033347;28;20056;-70
2021/08/21 07:57:11;;;;;;;9.90;4.82;;;21.50;99.90;;;;;;5036845;28;20059;-70
2021/08/21 07:59:39;;;;;;;6.53;4.00;;;21.60;99.90;;;;;;5033471;28;20041;-69
2021/08/21 08:02:09;;;;;;;9.60;7.35;;;21.80;99.90;;;;;;5032309;28;20095;-67
2021/08/21 08:04:36;;;;;;;7.70;5.00;;;21.90;99.90;;;;;;4993760;28;20124;-70
2021/08/21 08:07:04;;;;;;;10.55;5.95;;;22.00;99.90;;;;;;5019986;28;20049;-67
2021/08/21 08:09:31;;;;;;;9.73;6.30;;;22.10;99.90;;;;;;5033890;28;20050;-67
2021/08/21 08:11:59;;;;;;;10.93;5.10;;;22.10;99.90;;;;;;5041313;28;20076;-68
2021/08/21 08:14:26;;;;;;;7.90;4.57;;;22.10;99.90;;;;;;5020322;28;20037;-67
2021/08/21 08:16:53;;;;;;;9.50;6.95;;;22.10;99.90;;;;;;5040983;28;20049;-68
2021/08/21 08:19:21;;;;;;;7.70;5.75;;;22.20;99.90;;;;;;5018063;28;20044;-68
2021/08/21 08:21:48;;;;;;;8.07;5.20;;;22.20;99.90;;;;;;5036273;28;20069;-68
2021/08/21 08:24:19;;;;;;;10.70;5.85;;;22.30;99.90;;;;;;5019926;28;20128;-68
2021/08/21 08:26:46;;;;;;;6.82;4.18;;;22.60;99.90;;;;;;5038154;28;20112;-68
2021/08/21 08:29:14;;;;;;;6.78;4.40;;;22.70;99.90;;;;;;5040073;28;20585;-68
2021/08/21 08:31:41;;;;;;;7.72;4.25;;;22.80;99.90;;;;;;5036188;28;20037;-68
2021/08/21 08:34:08;;;;;;;6.47;3.70;;;22.60;99.90;;;;;;5040715;28;20052;-68
2021/08/21 08:36:35;;;;;;;7.43;4.35;;;22.80;99.90;;;;;;5033868;28;20041;-68
2021/08/21 08:39:03;;;;;;;6.90;3.90;;;23.00;99.90;;;;;;5035889;28;20047;-66
2021/08/21 08:41:30;;;;;;;7.07;4.85;;;23.20;99.90;;;;;;5037547;28;20037;-68
2021/08/21 08:43:59;;;;;;;7.78;4.28;;;23.40;99.90;;;;;;5035739;28;20062;-68
2021/08/21 08:46:27;;;;;;;9.48;4.18;;;23.50;99.90;;;;;;5042199;28;20047;-68
2021/08/21 08:48:54;;;;;;;9.52;6.05;;;23.70;99.90;;;;;;5031485;28;20524;-68
2021/08/21 08:51:22;;;;;;;9.23;6.38;;;23.80;99.90;;;;;;5030741;28;20377;-68
2021/08/21 08:53:49;;;;;;;9.57;6.15;;;23.80;99.90;;;;;;5034147;28;20053;-68
2021/08/21 08:56:17;;;;;;;7.53;5.00;;;24.00;99.90;;;;;;5032937;28;20549;-68
2021/08/21 08:58:44;;;;;;;7.80;5.00;;;23.90;99.90;;;;;;5046506;28;20049;-68
2021/08/21 09:01:11;;;;;;;6.70;4.47;;;24.00;99.90;;;;;;5042274;28;20045;-68
2021/08/21 09:03:39;;;;;;;7.43;4.38;;;24.10;99.90;;;;;;5037348;28;20411;-68
2021/08/21 09:06:12;;;;;;;8.20;4.43;;;24.10;99.90;;;;;;5031687;28;20038;-68
2021/08/21 09:08:40;;;;;;;6.85;4.13;;;24.10;99.90;;;;;;5044399;28;20041;-68
2021/08/21 09:11:22;;;;;;;6.55;4.47;;;24.40;99.90;;;;;;5038926;28;20128;-68
2021/08/21 09:13:50;;;;;;;10.13;5.57;;;24.70;99.90;;;;;;5037022;28;20119;-68
2021/08/21 09:16:26;;;;;;;6.10;4.00;;;24.70;99.90;;;;;;5039624;28;20128;-68
2021/08/21 09:19:05;;;;;;;8.00;4.20;;;24.70;99.90;;;;;;5047062;28;20169;-68
2021/08/21 09:22:07;;;;;;;10.40;5.35;;;24.90;99.90;;;;;;5042583;28;20116;-67
2021/08/21 09:24:37;;;;;;;9.95;6.28;;;25.20;99.90;;;;;;5042449;28;20063;-68
2021/08/21 09:27:25;;;;;;;8.45;4.75;;;25.40;99.90;;;;;;5045444;28;20051;-68
2021/08/21 09:30:13;;;;;;;7.03;4.03;;;25.70;99.90;;;;;;5042313;28;20055;-68
2021/08/21 09:32:42;;;;;;;7.18;5.35;;;25.80;99.90;;;;;;5014678;28;20415;-68
2021/08/21 09:35:11;;;;;;;6.43;4.95;;;26.00;99.90;;;;;;5036080;28;20052;-69
2021/08/21 09:37:51;;;;;;;6.60;4.10;;;26.30;99.90;;;;;;5021663;28;20045;-68
2021/08/21 09:40:33;;;;;;;11.43;7.97;;;26.50;99.90;;;;;;5032721;28;20407;-68
2021/08/21 09:43:02;;;;;;;6.40;4.23;;;26.80;99.90;;;;;;5026161;28;20785;-68
2021/08/21 09:45:35;;;;;;;7.07;3.88;;;27.00;99.90;;;;;;5024077;28;20060;-68
2021/08/21 09:48:07;;;;;;;6.95;4.85;;;27.10;99.90;;;;;;5002570;28;20059;-68
2021/08/21 09:50:42;;;;;;;7.22;4.80;;;27.00;99.90;;;;;;5033121;28;20045;-68
2021/08/21 09:53:12;;;;;;;7.10;4.40;;;26.90;99.90;;;;;;5043101;28;20429;-68
2021/08/21 09:55:40;;;;;;;8.88;6.60;;;27.10;99.90;;;;;;5034687;28;20061;-68
2021/08/21 09:58:15;;;;;;;8.40;4.35;;;27.20;99.90;;;;;;5033788;28;20048;-68
2021/08/21 10:00:43;;;;;;;5.72;4.28;;;27.20;99.90;;;;;;5030256;28;20103;-68
2021/08/21 10:03:11;;;;;;;7.43;4.65;;;27.40;99.90;;;;;;5031724;28;20124;-68
2021/08/21 10:05:40;;;;;;;6.47;3.50;;;27.50;99.90;;;;;;5022071;28;20125;-68
2021/08/21 10:08:10;;;;;;;7.38;3.95;;;27.40;99.90;;;;;;5032826;28;20056;-68
2021/08/21 10:10:50;;;;;;;6.20;3.97;;;27.50;99.90;;;;;;5026296;28;20037;-68
2021/08/21 10:13:30;;;;;;;6.10;3.80;;;27.50;99.90;;;;;;5017165;28;20034;-68
2021/08/21 10:15:58;;;;;;;6.93;3.97;;;27.50;99.90;;;;;;5033985;28;20076;-68
2021/08/21 10:18:25;;;;;;;5.85;3.55;;;27.50;99.90;;;;;;5022251;28;20037;-68
2021/08/21 10:20:53;;;;;;;5.82;4.05;;;27.60;99.90;;;;;;5011194;28;20056;-68
2021/08/21 10:23:26;;;;;;;4.70;3.38;;;27.80;99.90;;;;;;5016915;28;20038;-68
2021/08/21 10:26:13;;;;;;;8.45;3.42;;;27.90;99.90;;;;;;5020438;28;20424;-68
2021/08/21 10:28:41;;;;;;;5.78;3.95;;;28.30;99.90;;;;;;5028926;28;20053;-68
2021/08/21 10:31:29;;;;;;;5.57;3.72;;;28.70;99.90;;;;;;5040314;28;20140;-68
2021/08/21 10:33:57;;;;;;;4.70;3.33;;;28.80;99.90;;;;;;5040293;28;20123;-68
2021/08/21 10:36:42;;;;;;;6.10;4.28;;;28.70;99.90;;;;;;5033712;28;20034;-68
2021/08/21 10:39:23;;;;;;;6.18;3.88;;;28.80;99.90;;;;;;5032480;28;20045;-68
2021/08/21 10:41:53;;;;;;;8.75;4.70;;;28.90;99.90;;;;;;5033272;28;20056;-68
2021/08/21 10:44:54;;;;;;;5.82;4.30;;;29.00;99.90;;;;;;5045683;28;20037;-68
2021/08/21 10:47:30;;;;;;;9.38;5.25;;;29.20;99.90;;;;;;5031944;28;20041;-68
2021/08/21 10:49:59;;;;;;;5.57;2.95;;;29.30;99.90;;;;;;5020513;28;20030;-68
2021/08/21 10:52:53;;;;;;;7.65;4.43;;;29.50;99.90;;;;;;5035307;28;20045;-68
2021/08/21 10:55:24;;;;;;;4.50;2.78;;;29.70;99.90;;;;;;5028071;28;20043;-68
2021/08/21 10:58:01;;;;;;;5.15;3.35;;;29.40;99.90;;;;;;5034794;28;20369;-68
2021/08/21 11:00:38;;;;;;;5.70;3.45;;;28.90;99.90;;;;;;5034582;28;20553;-68
2021/08/21 11:03:07;;;;;;;4.38;2.67;;;28.50;99.90;;;;;;5016746;28;20519;-68
2021/08/21 11:05:57;;;;;;;5.22;3.13;;;28.40;99.90;;;;;;5029693;28;20041;-68
2021/08/21 11:08:32;;;;;;;5.53;3.33;;;28.20;99.90;;;;;;5039175;28;20045;-68
2021/08/21 11:11:15;;;;;;;7.82;3.40;;;28.30;99.90;;;;;;5031082;28;20045;-69
2021/08/21 11:14:00;;;;;;;9.23;7.32;;;28.70;99.90;;;;;;5033414;28;20041;-69
2021/08/21 11:16:45;;;;;;;5.88;3.22;;;29.20;99.90;;;;;;5032417;28;20041;-69
2021/08/21 11:19:28;;;;;;;9.85;8.70;;;29.50;99.90;;;;;;5009682;28;20539;-69
2021/08/21 11:22:17;;;;;;;6.45;4.22;;;29.50;99.90;;;;;;5018472;28;20143;-69
2021/08/21 11:24:55;;;;;;;5.55;3.67;;;29.50;99.90;;;;;;5028682;28;20514;-69
2021/08/21 11:27:25;;;;;;;6.03;4.90;;;29.30;99.90;;;;;;5030754;28;20117;-69
2021/08/21 11:30:06;;;;;;;5.90;4.00;;;29.20;99.90;;;;;;5020821;28;20049;-69
2021/08/21 11:32:57;;;;;;;8.00;4.70;;;29.10;99.90;;;;;;5014928;28;20049;-69
2021/08/21 11:35:35;;;;;;;4.28;3.00;;;29.10;99.90;;;;;;5028216;28;20045;-69
2021/08/21 11:38:06;;;;;;;5.20;3.03;;;29.30;99.90;;;;;;5026702;28;20041;-69
2021/08/21 11:40:40;;;;;;;6.22;3.85;;;29.70;99.90;;;;;;5022404;28;20045;-69
2021/08/21 11:43:11;;;;;;;5.72;3.75;;;30.00;99.90;;;;;;5013460;28;20041;-69
2021/08/21 11:45:39;;;;;;;12.32;8.38;;;29.80;99.90;;;;;;5025332;28;20038;-69
2021/08/21 11:48:07;;;;;;;6.05;3.60;;;29.60;99.90;;;;;;5013123;28;20034;-69
2021/08/21 11:50:37;;;;;;;4.70;3.42;;;29.80;99.90;;;;;;5012963;28;20053;-69
2021/08/21 11:53:07;;;;;;;6.45;3.50;;;30.50;99.90;;;;;;5023591;28;20057;-69
2021/08/21 11:55:36;;;;;;;5.75;3.50;;;31.50;99.90;;;;;;5021226;28;20511;-69
2021/08/21 11:58:08;;;;;;;4.40;3.08;;;31.90;99.90;;;;;;5043243;28;20520;-69
2021/08/21 12:00:40;;;;;;;4.40;2.95;;;32.30;99.90;;;;;;5041146;28;20046;-69
2021/08/21 12:03:10;;;;;;;5.65;3.10;;;32.70;99.90;;;;;;5035988;28;20061;-68
2021/08/21 12:05:43;;;;;;;6.70;3.65;;;32.80;99.90;;;;;;5036316;28;20075;-67
2021/08/21 12:08:18;;;;;;;8.10;4.00;;;32.70;99.90;;;;;;5028975;28;20385;-67
2021/08/21 12:10:48;;;;;;;6.43;3.35;;;32.90;99.90;;;;;;5025623;28;20064;-68
2021/08/21 12:13:38;;;;;;;4.68;3.15;;;33.10;99.90;;;;;;5033261;28;20051;-68
2021/08/21 12:16:12;;;;;;;4.45;2.72;;;33.90;99.90;;;;;;5044944;28;20048;-68
2021/08/21 12:18:44;;;;;;;4.55;2.90;;;33.60;99.90;;;;;;5044280;28;20033;-68
2021/08/21 12:21:21;;;;;;;6.10;3.25;;;33.70;99.90;;;;;;5045739;28;20048;-68
2021/08/21 12:23:54;;;;;;;4.72;2.92;;;33.30;99.90;;;;;;5043415;28;20045;-68
2021/08/21 12:26:41;;;;;;;4.82;3.20;;;33.20;99.90;;;;;;5045250;28;20059;-68
2021/08/21 12:29:30;;;;;;;4.60;3.17;;;32.60;99.90;;;;;;5023350;28;20132;-68
2021/08/21 12:31:59;;;;;;;4.97;3.30;;;32.40;99.90;;;;;;5044091;28;20052;-69
2021/08/21 12:34:27;;;;;;;5.70;3.13;;;32.10;99.90;;;;;;5038247;28;20053;-68
2021/08/21 12:37:03;;;;;;;7.32;3.15;;;31.90;99.90;;;;;;5036979;28;20056;-68
2021/08/21 12:39:31;;;;;;;7.20;3.15;;;32.30;99.90;;;;;;5029753;28;20590;-68
2021/08/21 12:42:03;;;;;;;4.70;2.97;;;33.10;99.90;;;;;;5021128;28;20381;-69
2021/08/21 12:44:34;;;;;;;5.15;2.90;;;33.70;99.90;;;;;;5021934;28;20050;-69
2021/08/21 12:47:05;;;;;;;4.38;2.80;;;34.20;99.00;;;;;;5019502;28;20121;-68
2021/08/21 12:49:35;;;;;;;4.60;2.78;;;35.00;99.30;;;;;;5027679;28;20042;-68
2021/08/21 12:52:19;;;;;;;10.43;7.57;;;35.60;96.80;;;;;;5025725;28;20060;-68
2021/08/21 12:55:00;;;;;;;6.65;3.47;;;35.70;95.20;;;;;;5029330;28;20049;-68
2021/08/21 12:57:37;;;;;;;5.75;3.10;;;35.80;94.00;;;;;;5021752;28;20046;-68
2021/08/21 13:00:05;;;;;;;5.07;3.20;;;35.20;93.90;;;;;;5033283;28;20132;-68
2021/08/21 13:02:55;;;;;;;4.78;2.97;;;34.70;93.80;;;;;;5025921;28;20038;-69
2021/08/21 13:05:28;;;;;;;6.40;3.28;;;34.10;94.40;;;;;;5012009;28;20452;-68
2021/08/21 13:08:03;;;;;;;5.35;3.55;;;33.50;95.20;;;;;;5031925;28;20042;-68